Trf Marquette — V7OG2 — position and weather

sailwx.info

Track history (hours):
 
Tides and Currents Weather Stations Pressure Air Temp Water Temp Dewpoint Dewpoint Depression Visibility Wind Speed Wind Dir Waves Ship Positions

Trf Marquette

Last reported at 2018-Jun-29 17:21 UTC. Time now 2018-Jul-20 10:48 UTC.
Position N 01°18' E 103°20'.
Warning: this ship's position is 20 days out of date.

Length 184 m; draft 10.4 m.

Type: Ship (hazmat cat D). MMSI: 538006547.

Date/timePositionNaut miles runAvg speedWind from/ knotsBaromVisibWave heightAir tempDewpointWater temp
2018-Jun-29 17:21N 01°18' E 103°20'513.9
2018-Jun-29 17:00N 01°15' E 103°25'713.8
2018-Jun-29 16:30N 01°13' E 103°31'612.6
2018-Jun-29 16:00N 01°11' E 103°37'510.9
2018-Jun-29 15:30N 01°09' E 103°42'610.7
2018-Jun-29 15:00N 01°10' E 103°48'613.1
2018-Jun-29 14:30N 01°13' E 103°53'610.6
2018-Jun-29 13:59N 01°15' E 103°58'3 7.0
2018-Jun-29 13:30N 01°16' E 104°02'5 8.7
2018-Jun-29 12:56N 01°19' E 104°05'410.3
2018-Jun-29 12:30N 01°22' E 104°02'4 8.6
2018-Jun-29 11:59N 01°24' E 103°58'4 9.2
2018-Jun-29 11:30N 01°26' E 103°54'0 0.3
2018-Jun-29 10:53N 01°26' E 103°54'0 0.0
2018-Jun-29 08:34N 01°26' E 103°54'0 0.0
2018-Jun-29 08:19N 01°26' E 103°54'0 0.0
2018-Jun-29 06:55N 01°26' E 103°54'0 0.0
2018-Jun-29 06:25N 01°26' E 103°54'0 0.0
2018-Jun-29 00:22N 01°26' E 103°54'0 0.0
2018-Jun-28 23:43N 01°26' E 103°54'0 0.0
2018-Jun-28 23:28N 01°26' E 103°54'0 0.0
2018-Jun-28 22:49N 01°26' E 103°54'0 0.0
2018-Jun-28 22:25N 01°26' E 103°54'0 0.0
2018-Jun-28 21:34N 01°26' E 103°54'0 0.0
2018-Jun-28 21:17N 01°26' E 103°54'0 0.0
2018-Jun-28 20:20N 01°26' E 103°54'0 0.0
2018-Jun-28 19:49N 01°26' E 103°54'0 0.0
2018-Jun-28 19:19N 01°26' E 103°54'0 0.0
2018-Jun-28 18:58N 01°26' E 103°54'0 0.0
2018-Jun-28 18:29N 01°26' E 103°54'0 0.0
2018-Jun-28 17:55N 01°26' E 103°54'0 0.0
2018-Jun-28 17:14N 01°26' E 103°54'0 0.0
2018-Jun-28 16:52N 01°26' E 103°54'0 0.0
2018-Jun-28 16:25N 01°26' E 103°54'0 0.0
2018-Jun-28 14:46N 01°26' E 103°54'0 0.0
2018-Jun-28 13:55N 01°26' E 103°54'0 0.0
2018-Jun-28 13:25N 01°26' E 103°54'0 0.0
2018-Jun-28 11:47N 01°26' E 103°54'0 0.0
2018-Jun-28 11:25N 01°26' E 103°54'0 0.0
2018-Jun-28 10:58N 01°26' E 103°54'0 0.0
2018-Jun-28 09:32N 01°26' E 103°54'0 0.0
2018-Jun-28 07:43N 01°26' E 103°54'0 0.0
2018-Jun-28 06:46N 01°26' E 103°54'0 0.0
2018-Jun-28 06:08N 01°26' E 103°54'0 0.0
2018-Jun-28 05:58N 01°26' E 103°54'0 0.0
2018-Jun-28 05:16N 01°26' E 103°54'0 0.0
2018-Jun-28 04:43N 01°26' E 103°54'0 0.0
2018-Jun-28 03:50N 01°26' E 103°54'0 0.0
2018-Jun-28 03:16N 01°26' E 103°54'0 0.0
2018-Jun-28 02:49N 01°26' E 103°54'0 0.0
2018-Jun-28 02:25N 01°26' E 103°54'0 0.0
2018-Jun-28 01:43N 01°26' E 103°54'0 0.0
2018-Jun-28 01:07N 01°26' E 103°54'0 0.0
2018-Jun-28 00:34N 01°26' E 103°54'0 0.0
2018-Jun-28 00:28N 01°26' E 103°54'0 0.0
2018-Jun-27 23:20N 01°26' E 103°54'0 0.0
2018-Jun-27 22:38N 01°26' E 103°54'0 0.0
2018-Jun-27 22:13N 01°26' E 103°54'0 0.0
2018-Jun-27 21:55N 01°26' E 103°54'0 0.0
2018-Jun-27 21:08N 01°26' E 103°54'0 0.2
2018-Jun-27 21:00N 01°26' E 103°54'1 2.1
2018-Jun-27 20:30N 01°25' E 103°55'4 7.5
2018-Jun-27 20:00N 01°24' E 103°58'5 9.7
2018-Jun-27 19:30N 01°22' E 104°03'510.7
2018-Jun-27 19:00N 01°18' E 104°07'4 8.0
2018-Jun-27 18:29N 01°17' E 104°11'4 7.5
2018-Jun-27 17:59N 01°18' E 104°15'4 7.6
2018-Jun-27 17:30N 01°19' E 104°18'4 8.7
2018-Jun-27 17:00N 01°21' E 104°22'510.1
2018-Jun-27 16:27N 01°25' E 104°26'2410.5
2018-Jun-27 14:11N 01°46' E 104°37'411.8
2018-Jun-27 13:53N 01°50' E 104°37'511.9
2018-Jun-27 13:30N 01°54' E 104°37'  
2018-Jun-23 15:56S 06°51' E 112°45'5 9.3
2018-Jun-23 15:26S 06°56' E 112°43'613.9
2018-Jun-23 15:00S 07°01' E 112°40'812.9
2018-Jun-23 14:24S 07°09' E 112°40'2 1.0
2018-Jun-23 12:40S 07°11' E 112°41'0 0.0
2018-Jun-23 09:19S 07°11' E 112°41'0 0.0
2018-Jun-23 08:58S 07°11' E 112°41'0 0.0
2018-Jun-23 08:28S 07°11' E 112°41'0 0.0
2018-Jun-23 02:43S 07°11' E 112°41'0 0.0
2018-Jun-23 02:28S 07°11' E 112°41'0 0.0
2018-Jun-22 18:52S 07°11' E 112°41'0 0.0
2018-Jun-22 18:25S 07°11' E 112°41'0 0.0
2018-Jun-22 17:58S 07°11' E 112°41'0 0.0
2018-Jun-22 15:07S 07°11' E 112°41'0 0.0
2018-Jun-22 14:25S 07°11' E 112°41'6 0.5
2018-Jun-22 02:24S 07°05' E 112°40'1410.7
2018-Jun-22 01:06S 06°52' E 112°45'1 9.4
2018-Jun-22 00:59S 06°51' E 112°45'  
2018-Jun-19 17:46N 01°24' E 104°30'513.0
2018-Jun-19 17:25N 01°22' E 104°25'  
Track history (hours):
 
Tides and Currents Weather Stations Pressure Air Temp Water Temp Dewpoint Dewpoint Depression Visibility Wind Speed Wind Dir Waves Ship Positions

Trf Marquette

Last reported at 2018-Jun-29 17:21 UTC. Time now 2018-Jul-20 10:48 UTC.
Position N 01°18' E 103°20'.
Warning: this ship's position is 20 days out of date.

Length 184 m; draft 10.4 m.

Type: Ship (hazmat cat D). MMSI: 538006547.

Date/timePositionNaut miles runAvg speedWind from/ knotsBaromVisibWave heightAir tempDewpointWater temp
2018-Jun-29 17:21N 01°18' E 103°20'513.9
2018-Jun-29 17:00N 01°15' E 103°25'713.8
2018-Jun-29 16:30N 01°13' E 103°31'612.6
2018-Jun-29 16:00N 01°11' E 103°37'510.9
2018-Jun-29 15:30N 01°09' E 103°42'610.7
2018-Jun-29 15:00N 01°10' E 103°48'613.1
2018-Jun-29 14:30N 01°13' E 103°53'610.6
2018-Jun-29 13:59N 01°15' E 103°58'3 7.0
2018-Jun-29 13:30N 01°16' E 104°02'5 8.7
2018-Jun-29 12:56N 01°19' E 104°05'410.3
2018-Jun-29 12:30N 01°22' E 104°02'4 8.6
2018-Jun-29 11:59N 01°24' E 103°58'4 9.2
2018-Jun-29 11:30N 01°26' E 103°54'0 0.3
2018-Jun-29 10:53N 01°26' E 103°54'0 0.0
2018-Jun-29 08:34N 01°26' E 103°54'0 0.0
2018-Jun-29 08:19N 01°26' E 103°54'0 0.0
2018-Jun-29 06:55N 01°26' E 103°54'0 0.0
2018-Jun-29 06:25N 01°26' E 103°54'0 0.0
2018-Jun-29 00:22N 01°26' E 103°54'0 0.0
2018-Jun-28 23:43N 01°26' E 103°54'0 0.0
2018-Jun-28 23:28N 01°26' E 103°54'0 0.0
2018-Jun-28 22:49N 01°26' E 103°54'0 0.0
2018-Jun-28 22:25N 01°26' E 103°54'0 0.0
2018-Jun-28 21:34N 01°26' E 103°54'0 0.0
2018-Jun-28 21:17N 01°26' E 103°54'0 0.0
2018-Jun-28 20:20N 01°26' E 103°54'0 0.0
2018-Jun-28 19:49N 01°26' E 103°54'0 0.0
2018-Jun-28 19:19N 01°26' E 103°54'0 0.0
2018-Jun-28 18:58N 01°26' E 103°54'0 0.0
2018-Jun-28 18:29N 01°26' E 103°54'0 0.0
2018-Jun-28 17:55N 01°26' E 103°54'0 0.0
2018-Jun-28 17:14N 01°26' E 103°54'0 0.0
2018-Jun-28 16:52N 01°26' E 103°54'0 0.0
2018-Jun-28 16:25N 01°26' E 103°54'0 0.0
2018-Jun-28 14:46N 01°26' E 103°54'0 0.0
2018-Jun-28 13:55N 01°26' E 103°54'0 0.0
2018-Jun-28 13:25N 01°26' E 103°54'0 0.0
2018-Jun-28 11:47N 01°26' E 103°54'0 0.0
2018-Jun-28 11:25N 01°26' E 103°54'0 0.0
2018-Jun-28 10:58N 01°26' E 103°54'0 0.0
2018-Jun-28 09:32N 01°26' E 103°54'0 0.0
2018-Jun-28 07:43N 01°26' E 103°54'0 0.0
2018-Jun-28 06:46N 01°26' E 103°54'0 0.0
2018-Jun-28 06:08N 01°26' E 103°54'0 0.0
2018-Jun-28 05:58N 01°26' E 103°54'0 0.0
2018-Jun-28 05:16N 01°26' E 103°54'0 0.0
2018-Jun-28 04:43N 01°26' E 103°54'0 0.0
2018-Jun-28 03:50N 01°26' E 103°54'0 0.0
2018-Jun-28 03:16N 01°26' E 103°54'0 0.0
2018-Jun-28 02:49N 01°26' E 103°54'0 0.0
2018-Jun-28 02:25N 01°26' E 103°54'0 0.0
2018-Jun-28 01:43N 01°26' E 103°54'0 0.0
2018-Jun-28 01:07N 01°26' E 103°54'0 0.0
2018-Jun-28 00:34N 01°26' E 103°54'0 0.0
2018-Jun-28 00:28N 01°26' E 103°54'0 0.0
2018-Jun-27 23:20N 01°26' E 103°54'0 0.0
2018-Jun-27 22:38N 01°26' E 103°54'0 0.0
2018-Jun-27 22:13N 01°26' E 103°54'0 0.0
2018-Jun-27 21:55N 01°26' E 103°54'0 0.0
2018-Jun-27 21:08N 01°26' E 103°54'0 0.2
2018-Jun-27 21:00N 01°26' E 103°54'1 2.1
2018-Jun-27 20:30N 01°25' E 103°55'4 7.5
2018-Jun-27 20:00N 01°24' E 103°58'5 9.7
2018-Jun-27 19:30N 01°22' E 104°03'510.7
2018-Jun-27 19:00N 01°18' E 104°07'4 8.0
2018-Jun-27 18:29N 01°17' E 104°11'4 7.5
2018-Jun-27 17:59N 01°18' E 104°15'4 7.6
2018-Jun-27 17:30N 01°19' E 104°18'4 8.7
2018-Jun-27 17:00N 01°21' E 104°22'510.1
2018-Jun-27 16:27N 01°25' E 104°26'2410.5
2018-Jun-27 14:11N 01°46' E 104°37'411.8
2018-Jun-27 13:53N 01°50' E 104°37'511.9
2018-Jun-27 13:30N 01°54' E 104°37'  
2018-Jun-23 15:56S 06°51' E 112°45'5 9.3
2018-Jun-23 15:26S 06°56' E 112°43'613.9
2018-Jun-23 15:00S 07°01' E 112°40'812.9
2018-Jun-23 14:24S 07°09' E 112°40'2 1.0
2018-Jun-23 12:40S 07°11' E 112°41'0 0.0
2018-Jun-23 09:19S 07°11' E 112°41'0 0.0
2018-Jun-23 08:58S 07°11' E 112°41'0 0.0
2018-Jun-23 08:28S 07°11' E 112°41'0 0.0
2018-Jun-23 02:43S 07°11' E 112°41'0 0.0
2018-Jun-23 02:28S 07°11' E 112°41'0 0.0
2018-Jun-22 18:52S 07°11' E 112°41'0 0.0
2018-Jun-22 18:25S 07°11' E 112°41'0 0.0
2018-Jun-22 17:58S 07°11' E 112°41'0 0.0
2018-Jun-22 15:07S 07°11' E 112°41'0 0.0
2018-Jun-22 14:25S 07°11' E 112°41'6 0.5
2018-Jun-22 02:24S 07°05' E 112°40'1410.7
2018-Jun-22 01:06S 06°52' E 112°45'1 9.4
2018-Jun-22 00:59S 06°51' E 112°45'  
2018-Jun-19 17:46N 01°24' E 104°30'513.0
2018-Jun-19 17:25N 01°22' E 104°25'  

Dump ship's entire track history